Time;durP1;ratioP1;P1;durP2;ratioP2;P2;SDS_P1;SDS_P2;PMS_P1;PMS_P2;Temp;Humidity;BMP_temperature;BMP_pressure;BME280_temperature;BME280_humidity;BME280_pressure;Samples;Min_cycle;Max_cycle;Signal;HPM_P1;HPM_P2
2023/10/19 00:01:59;;;;;;;12.07;10.27;;;;;;;8.83;100.00;94710.84;5008562;28;20698;-45
2023/10/19 00:04:25;;;;;;;12.23;10.53;;;;;;;8.82;100.00;94701.59;5011022;28;20195;-47
2023/10/19 00:06:53;;;;;;;11.37;10.17;;;;;;;8.80;100.00;94704.25;5028405;28;20561;-44
2023/10/19 00:09:20;;;;;;;13.00;10.50;;;;;;;8.80;100.00;94699.97;5028700;28;20195;-44
2023/10/19 00:11:47;;;;;;;14.37;10.87;;;;;;;8.75;100.00;94689.34;5028727;28;20195;-46
2023/10/19 00:14:16;;;;;;;11.23;9.87;;;;;;;8.75;100.00;94691.09;5030135;28;20202;-46
2023/10/19 00:16:50;;;;;;;13.60;10.10;;;;;;;8.76;100.00;94688.44;5041470;28;20259;-44
2023/10/19 00:19:19;;;;;;;12.20;9.77;;;;;;;8.75;100.00;94683.44;5042071;28;20325;-45
2023/10/19 00:21:54;;;;;;;11.97;9.43;;;;;;;8.70;100.00;94677.91;5029263;28;20263;-45
2023/10/19 00:24:23;;;;;;;11.40;9.53;;;;;;;8.69;100.00;94678.84;5045312;28;20283;-45
2023/10/19 00:26:53;;;;;;;10.93;8.80;;;;;;;8.64;100.00;94676.69;5090321;28;20220;-46
2023/10/19 00:29:31;;;;;;;9.87;8.40;;;;;;;8.62;100.00;94677.72;5106056;28;20193;-45
2023/10/19 00:31:59;;;;;;;10.27;9.17;;;;;;;8.58;100.00;94668.72;5110796;28;20258;-45
2023/10/19 00:34:29;;;;;;;10.00;9.00;;;;;;;8.52;100.00;94667.50;5110882;28;20196;-44
2023/10/19 00:36:56;;;;;;;11.37;9.47;;;;;;;8.35;100.00;94642.56;5110408;28;20307;-44
2023/10/19 00:39:24;;;;;;;11.30;9.47;;;;;;;8.48;100.00;94668.69;5111404;28;20218;-43
2023/10/19 00:41:53;;;;;;;11.23;9.20;;;;;;;8.47;100.00;94667.88;5110409;28;20575;-44
2023/10/19 00:44:30;;;;;;;12.37;9.27;;;;;;;8.50;100.00;94659.16;5111624;28;20200;-45
2023/10/19 00:47:02;;;;;;;10.33;9.23;;;;;;;8.34;100.00;94639.19;5112162;28;20184;-45
2023/10/19 00:49:32;;;;;;;14.00;10.00;;;;;;;8.52;100.00;94673.38;5112712;28;20201;-44
2023/10/19 00:52:11;;;;;;;11.77;9.60;;;;;;;8.54;100.00;94668.97;5110270;28;20187;-45
2023/10/19 00:54:42;;;;;;;13.30;9.30;;;;;;;8.52;100.00;94665.75;5112925;28;20195;-46
2023/10/19 00:57:10;;;;;;;11.03;8.90;;;;;;;8.47;100.00;94664.50;5109450;28;20531;-44
2023/10/19 00:59:42;;;;;;;13.20;9.60;;;;;;;8.49;100.00;94663.44;5089470;28;20273;-46
2023/10/19 01:02:19;;;;;;;13.23;9.53;;;;;;;8.50;100.00;94662.50;5089781;28;20624;-44
2023/10/19 01:04:55;;;;;;;11.33;8.93;;;;;;;8.36;100.00;94646.72;5092601;28;20184;-45
2023/10/19 01:07:27;;;;;;;11.30;10.10;;;;;;;8.50;100.00;94659.16;5112357;28;20218;-45
2023/10/19 01:09:56;;;;;;;12.33;8.97;;;;;;;8.48;100.00;94658.47;5114363;28;20648;-46
2023/10/19 01:12:29;;;;;;;11.30;9.07;;;;;;;8.46;100.00;94657.78;5114494;28;20193;-44
2023/10/19 01:15:07;;;;;;;12.60;9.80;;;;;;;8.48;100.00;94674.56;5114462;28;20193;-44
2023/10/19 01:17:38;;;;;;;13.03;9.60;;;;;;;8.46;100.00;94675.63;5113981;28;20276;-43
2023/10/19 01:20:15;;;;;;;13.03;9.87;;;;;;;8.39;100.00;94666.88;5107125;28;20273;-45
2023/10/19 01:22:53;;;;;;;10.17;8.60;;;;;;;8.41;100.00;94678.53;5094074;28;20666;-43
2023/10/19 01:25:24;;;;;;;11.33;9.77;;;;;;;8.36;100.00;94665.34;5093755;28;20264;-44
2023/10/19 01:27:57;;;;;;;11.20;9.63;;;;;;;8.35;100.00;94670.56;5093785;28;20552;-42
2023/10/19 01:30:26;;;;;;;11.70;8.73;;;;;;;8.32;100.00;94665.72;5094154;28;20534;-44
2023/10/19 01:32:53;;;;;;;11.53;8.97;;;;;;;8.29;100.00;94667.59;5094071;28;20185;-44
2023/10/19 01:35:21;;;;;;;11.10;9.37;;;;;;;8.31;100.00;94670.00;5093325;28;20181;-42
2023/10/19 01:37:48;;;;;;;11.90;9.53;;;;;;;8.31;100.00;94677.66;5093286;28;20314;-44
2023/10/19 01:40:20;;;;;;;11.00;9.37;;;;;;;8.28;100.00;94660.06;5092865;28;20197;-44
2023/10/19 01:42:46;;;;;;;10.83;9.57;;;;;;;8.29;100.00;94664.25;5093588;28;20225;-43
2023/10/19 01:45:14;;;;;;;11.70;9.63;;;;;;;8.28;100.00;94665.97;5093676;28;20315;-45
2023/10/19 01:47:42;;;;;;;11.77;9.97;;;;;;;8.27;100.00;94671.19;5095997;28;20189;-41
2023/10/19 01:50:19;;;;;;;13.53;10.43;;;;;;;8.23;100.00;94669.81;5113926;27;20289;-44
2023/10/19 01:52:47;;;;;;;12.53;9.80;;;;;;;8.20;100.00;94675.16;5114279;28;20652;-42
2023/10/19 01:55:20;;;;;;;11.80;10.10;;;;;;;8.22;100.00;94678.41;5113563;28;20249;-42
2023/10/19 01:57:48;;;;;;;14.27;9.83;;;;;;;8.22;100.00;94675.84;5114258;28;20224;-43
2023/10/19 02:00:22;;;;;;;14.33;10.90;;;;;;;8.17;100.00;94662.69;5113131;28;20228;-48
2023/10/19 02:02:50;;;;;;;16.30;11.57;;;;;;;8.13;100.00;94656.22;5107083;28;20652;-44
2023/10/19 02:05:18;;;;;;;15.73;12.53;;;;;;;8.17;100.00;94667.78;5093273;28;20194;-43
2023/10/19 02:07:44;;;;;;;13.83;11.80;;;;;;;8.15;100.00;94667.88;5093842;28;20243;-44
2023/10/19 02:10:12;;;;;;;14.13;11.43;;;;;;;8.11;100.00;94668.25;5092385;28;20233;-43
2023/10/19 02:12:46;;;;;;;15.10;11.63;;;;;;;8.08;100.00;94671.06;5092475;28;20292;-44
2023/10/19 02:15:13;;;;;;;16.33;12.27;;;;;;;7.51;100.00;94589.00;5092399;28;20671;-44
2023/10/19 02:17:41;;;;;;;15.53;11.37;;;;;;;7.98;100.00;94663.34;5092619;28;20228;-47
2023/10/19 02:20:24;;;;;;;16.57;12.63;;;;;;;8.04;100.00;94676.41;5092403;28;20653;-44
2023/10/19 02:22:52;;;;;;;16.23;12.37;;;;;;;8.02;100.00;94680.78;5094253;28;20194;-47
2023/10/19 02:25:19;;;;;;;15.33;12.77;;;;;;;8.01;100.00;94665.66;5094280;28;20214;-45
2023/10/19 02:27:51;;;;;;;16.73;12.37;;;;;;;7.94;100.00;94660.22;5093905;28;20204;-47
2023/10/19 02:30:17;;;;;;;16.97;13.17;;;;;;;8.04;100.00;94671.31;5094032;28;20575;-45
2023/10/19 02:32:44;;;;;;;16.17;12.20;;;;;;;8.04;100.00;94673.84;5092862;28;20182;-44
2023/10/19 02:35:10;;;;;;;17.87;13.40;;;;;;;8.05;100.00;94672.13;5092425;28;20186;-43
2023/10/19 02:37:38;;;;;;;15.47;12.93;;;;;;;7.98;100.00;94658.25;5092244;28;20256;-46
2023/10/19 02:40:12;;;;;;;18.00;13.17;;;;;;;7.99;100.00;94668.31;5091841;28;20213;-44
2023/10/19 02:42:39;;;;;;;16.83;12.70;;;;;;;7.98;100.00;94668.44;5096293;28;20193;-44
2023/10/19 02:45:07;;;;;;;17.27;12.33;;;;;;;7.93;100.00;94663.72;5111966;28;20660;-44
2023/10/19 02:47:34;;;;;;;17.03;12.97;;;;;;;7.90;100.00;94666.50;5112759;28;20250;-45
2023/10/19 02:50:00;;;;;;;16.00;12.67;;;;;;;7.76;100.00;94649.78;5112293;28;20223;-45
2023/10/19 02:52:28;;;;;;;15.40;12.77;;;;;;;7.86;100.00;94666.84;5112412;28;20283;-44
2023/10/19 02:54:56;;;;;;;15.90;12.30;;;;;;;7.90;100.00;94658.88;5112309;28;20675;-44
2023/10/19 02:57:24;;;;;;;19.20;13.03;;;;;;;7.89;100.00;94667.44;5110899;28;20645;-46
2023/10/19 02:59:50;;;;;;;16.87;11.73;;;;;;;7.88;100.00;94668.34;5106991;28;20722;-45
2023/10/19 03:02:18;;;;;;;16.27;12.10;;;;;;;7.87;100.00;94660.84;5106325;28;20189;-45
2023/10/19 03:04:45;;;;;;;17.83;12.47;;;;;;;7.87;100.00;94663.41;5110318;28;20181;-45
2023/10/19 03:07:13;;;;;;;15.37;11.80;;;;;;;7.86;100.00;94659.22;5111699;28;20528;-45
2023/10/19 03:09:38;;;;;;;16.90;11.27;;;;;;;7.83;100.00;94657.75;5111946;28;20947;-44
2023/10/19 03:12:10;;;;;;;14.77;11.07;;;;;;;7.84;100.00;94661.91;5110835;28;20196;-44
2023/10/19 03:14:37;;;;;;;15.60;11.70;;;;;;;7.85;100.00;94652.50;5111861;28;20229;-44
2023/10/19 03:17:05;;;;;;;15.03;11.50;;;;;;;7.86;100.00;94657.50;5105105;28;20241;-43
2023/10/19 03:19:32;;;;;;;15.47;11.50;;;;;;;7.89;100.00;94656.44;5093032;28;20285;-46
2023/10/19 03:22:00;;;;;;;12.87;10.77;;;;;;;7.85;100.00;94645.69;5093485;28;20182;-48
2023/10/19 03:24:35;;;;;;;15.67;10.97;;;;;;;7.90;100.00;94658.03;5094402;28;20262;-48
2023/10/19 03:27:08;;;;;;;16.87;11.80;;;;;;;7.66;100.00;94628.53;5093034;28;20293;-43
2023/10/19 03:29:38;;;;;;;14.27;11.13;;;;;;;7.84;100.00;94664.44;5091690;28;20326;-44
2023/10/19 03:32:05;;;;;;;14.13;11.03;;;;;;;7.79;100.00;94667.34;5096148;28;20193;-43
2023/10/19 03:34:33;;;;;;;13.93;10.80;;;;;;;7.79;100.00;94653.81;5111910;28;20189;-41
2023/10/19 03:37:05;;;;;;;14.17;10.27;;;;;;;7.78;100.00;94653.00;5111276;28;20229;-49
2023/10/19 03:39:35;;;;;;;27.07;12.47;;;;;;;7.76;100.00;94659.94;5097296;28;20194;-45
2023/10/19 03:42:05;;;;;;;22.97;12.27;;;;;;;7.76;100.00;94656.59;5090768;28;20545;-43
2023/10/19 03:44:42;;;;;;;14.93;10.20;;;;;;;7.80;100.00;94651.13;5090867;28;20195;-44
2023/10/19 03:47:14;;;;;;;14.20;11.83;;;;;;;7.79;100.00;94643.63;5090595;28;20290;-44
2023/10/19 03:49:43;;;;;;;15.23;10.83;;;;;;;7.74;100.00;94638.09;5090644;28;20576;-44
2023/10/19 03:54:50;;;;;;;15.70;11.53;;;;;;;7.71;100.00;94631.50;5088550;28;20193;-45
2023/10/19 03:57:22;;;;;;;13.30;11.03;;;;;;;7.69;100.00;94640.22;5069989;28;20222;-45
2023/10/19 03:59:52;;;;;;;13.77;10.90;;;;;;;7.65;100.00;94634.56;5071758;28;20194;-43
2023/10/19 04:02:20;;;;;;;16.27;12.50;;;;;;;7.64;100.00;94632.94;5089946;28;20281;-45
2023/10/19 04:04:49;;;;;;;14.33;11.17;;;;;;;7.56;100.00;94624.31;5090702;28;20247;-43
2023/10/19 04:07:20;;;;;;;12.30;10.27;;;;;;;7.66;100.00;94643.00;5082519;28;20193;-42
2023/10/19 04:10:29;;;;;;;13.70;10.87;;;;;;;7.66;100.00;94635.34;5085073;28;20193;-43
2023/10/19 04:12:57;;;;;;;13.27;10.23;;;;;;;7.65;100.00;94632.00;5089531;28;20201;-46
2023/10/19 04:15:26;;;;;;;15.53;11.00;;;;;;;7.71;100.00;94640.88;5090102;28;20181;-43
2023/10/19 04:17:55;;;;;;;16.10;10.60;;;;;;;7.72;100.00;94647.59;5090423;28;20221;-48
2023/10/19 04:20:35;;;;;;;13.87;11.37;;;;;;;7.70;100.00;94645.19;5089807;28;20194;-42
2023/10/19 04:23:10;;;;;;;14.17;10.57;;;;;;;7.67;100.00;94640.31;5090612;28;20198;-42
2023/10/19 04:25:37;;;;;;;17.63;10.80;;;;;;;7.66;100.00;94633.63;5089479;28;20200;-43
2023/10/19 04:28:05;;;;;;;15.03;11.23;;;;;;;7.69;100.00;94633.38;5089468;28;20198;-43
2023/10/19 04:30:33;;;;;;;13.67;11.20;;;;;;;7.71;100.00;94636.59;5091450;28;20287;-42
2023/10/19 04:33:01;;;;;;;14.03;10.20;;;;;;;7.71;100.00;94638.34;5089426;28;20190;-44
2023/10/19 04:35:32;;;;;;;18.70;11.50;;;;;;;7.63;100.00;94623.66;5090953;28;20178;-43
2023/10/19 04:37:59;;;;;;;14.60;10.97;;;;;;;7.70;100.00;94632.44;5088268;28;20208;-44
2023/10/19 04:40:26;;;;;;;16.90;11.73;;;;;;;7.66;100.00;94625.19;5090329;28;20203;-42
2023/10/19 04:42:54;;;;;;;16.50;11.47;;;;;;;7.66;100.00;94625.97;5088297;28;20640;-42
2023/10/19 04:45:21;;;;;;;16.10;12.00;;;;;;;7.64;100.00;94621.94;5090489;28;20578;-42
2023/10/19 04:47:52;;;;;;;16.03;12.63;;;;;;;7.39;100.00;94582.38;5089018;28;20201;-44
2023/10/19 04:50:19;;;;;;;16.47;11.60;;;;;;;7.62;100.00;94613.63;5085957;28;20310;-43
2023/10/19 04:52:48;;;;;;;16.40;12.33;;;;;;;7.63;100.00;94613.50;5085788;28;20272;-42
2023/10/19 04:55:15;;;;;;;15.87;11.43;;;;;;;7.62;100.00;94611.88;5088863;28;20198;-43
2023/10/19 04:57:42;;;;;;;16.17;12.07;;;;;;;7.64;100.00;94620.22;5089564;28;20248;-43
2023/10/19 05:00:13;;;;;;;16.27;11.77;;;;;;;7.64;100.00;94617.69;5089833;28;20190;-44
2023/10/19 05:02:39;;;;;;;19.47;11.27;;;;;;;7.68;100.00;94616.47;5095593;28;20624;-44
2023/10/19 05:05:07;;;;;;;16.60;11.90;;;;;;;7.72;100.00;94620.41;5090324;28;20189;-44
2023/10/19 05:07:34;;;;;;;16.73;12.30;;;;;;;7.77;100.00;94617.47;5088663;28;20186;-43
2023/10/19 05:10:05;;;;;;;16.63;12.40;;;;;;;7.80;100.00;94619.78;5088435;28;20354;-42
2023/10/19 05:12:32;;;;;;;17.23;11.87;;;;;;;7.88;100.00;94630.16;5088301;28;20194;-42
2023/10/19 05:14:58;;;;;;;16.37;12.20;;;;;;;7.97;100.00;94633.72;5089118;28;20192;-43
2023/10/19 05:17:27;;;;;;;17.87;13.30;;;;;;;8.04;100.00;94625.47;5088155;28;20652;-43
2023/10/19 05:19:53;;;;;;;18.93;13.83;;;;;;;8.04;100.00;94609.38;5088473;28;20190;-44
2023/10/19 05:22:21;;;;;;;20.60;14.30;;;;;;;8.21;100.00;94621.56;5088317;28;20197;-43
2023/10/19 05:24:48;;;;;;;20.80;14.17;;;;;;;8.30;100.00;94620.81;5088620;28;20200;-43
2023/10/19 05:27:17;;;;;;;19.93;13.83;;;;;;;8.41;100.00;94621.69;5089064;28;20318;-44
2023/10/19 05:29:47;;;;;;;19.20;13.27;;;;;;;8.58;100.00;94622.84;5087673;28;20198;-47
2023/10/19 05:32:14;;;;;;;21.57;13.73;;;;;;;8.70;100.00;94634.56;5084200;28;20194;-42
2023/10/19 05:34:41;;;;;;;22.27;15.23;;;;;;;8.83;100.00;94642.00;5087995;28;20569;-57
2023/10/19 05:37:08;;;;;;;28.27;16.90;;;;;;;8.91;100.00;94635.31;5090592;28;20679;-41
2023/10/19 05:39:36;;;;;;;25.73;17.50;;;;;;;8.94;100.00;94629.97;5088494;28;20680;-43
2023/10/19 05:42:03;;;;;;;44.57;24.57;;;;;;;9.04;100.00;94648.66;5088125;28;20194;-43
2023/10/19 05:44:32;;;;;;;33.43;20.60;;;;;;;9.00;100.00;94641.41;5088299;28;20239;-43
2023/10/19 05:46:59;;;;;;;25.63;16.40;;;;;;;9.07;100.00;94649.31;5087755;28;20198;-42
2023/10/19 05:49:26;;;;;;;25.53;15.77;;;;;;;9.12;100.00;94650.56;5087446;28;20285;-45
2023/10/19 05:51:53;;;;;;;27.67;17.03;;;;;;;9.18;100.00;94649.22;5087422;28;20602;-43
2023/10/19 05:54:23;;;;;;;26.37;15.37;;;;;;;9.27;100.00;94651.00;5089272;28;20182;-43
2023/10/19 05:56:50;;;;;;;31.17;17.73;;;;;;;9.35;100.00;94646.06;5092715;28;20224;-43
2023/10/19 05:59:17;;;;;;;24.33;16.27;;;;;;;9.40;100.00;94643.09;5091342;28;20218;-44
2023/10/19 06:01:46;;;;;;;27.43;18.30;;;;;;;9.47;100.00;94642.44;5091642;28;20182;-45
2023/10/19 06:04:13;;;;;;;27.27;17.10;;;;;;;9.04;100.00;94569.59;5091127;28;20189;-44
2023/10/19 06:06:40;;;;;;;23.77;17.13;;;;;;;9.66;100.00;94645.97;5091744;28;20644;-44
2023/10/19 06:09:09;;;;;;;26.90;16.73;;;;;;;9.75;100.00;94652.81;5091310;28;20659;-42
2023/10/19 06:11:37;;;;;;;32.93;18.87;;;;;;;9.80;100.00;94646.38;5091928;28;20189;-44
2023/10/19 06:14:06;;;;;;;26.10;18.30;;;;;;;9.87;99.54;94649.19;5091433;28;20266;-44
2023/10/19 06:16:34;;;;;;;27.03;18.27;;;;;;;9.95;99.27;94654.44;5091271;28;20189;-43
2023/10/19 06:19:02;;;;;;;32.97;19.60;;;;;;;9.94;99.11;94642.63;5091917;28;20245;-43
2023/10/19 06:21:30;;;;;;;28.67;19.87;;;;;;;10.00;99.28;94647.19;5091863;28;20186;-44
2023/10/19 06:23:56;;;;;;;30.23;18.83;;;;;;;10.08;99.09;94646.50;5091815;28;20228;-43
2023/10/19 06:26:24;;;;;;;30.30;19.50;;;;;;;10.15;99.03;94654.44;5091253;28;20221;-44
2023/10/19 06:28:50;;;;;;;29.97;19.33;;;;;;;10.17;98.55;94648.25;5091378;28;20193;-45
2023/10/19 06:31:18;;;;;;;28.07;20.37;;;;;;;10.22;98.37;94651.19;5090790;28;20707;-53
2023/10/19 06:33:45;;;;;;;28.63;18.13;;;;;;;10.24;98.25;94648.53;5093369;28;20185;-43
2023/10/19 06:36:13;;;;;;;30.07;18.83;;;;;;;10.29;98.18;94648.94;5094068;28;20188;-42
2023/10/19 06:38:40;;;;;;;27.47;18.90;;;;;;;10.34;97.92;94651.88;5092891;28;20262;-44
2023/10/19 06:41:13;;;;;;;40.03;21.60;;;;;;;10.49;97.80;94647.97;5094273;28;20184;-44
2023/10/19 06:43:41;;;;;;;29.27;21.03;;;;;;;10.52;97.36;94657.91;5088861;28;20581;-45
2023/10/19 06:46:11;;;;;;;27.97;19.83;;;;;;;10.57;96.81;94649.81;5090615;28;20205;-45
2023/10/19 06:48:38;;;;;;;36.90;21.43;;;;;;;10.59;96.50;94636.91;5091253;28;20823;-45
2023/10/19 06:51:06;;;;;;;34.30;20.43;;;;;;;10.87;96.45;94651.34;5091532;28;20249;-45
2023/10/19 06:53:34;;;;;;;29.73;19.87;;;;;;;11.05;96.14;94653.94;5091868;28;20193;-43
2023/10/19 06:56:00;;;;;;;23.97;17.57;;;;;;;11.18;95.54;94648.50;5093553;28;20644;-45
2023/10/19 06:58:27;;;;;;;24.07;16.10;;;;;;;11.37;95.02;94635.63;5090895;28;20229;-43
2023/10/19 07:00:59;;;;;;;22.87;15.33;;;;;;;11.54;93.41;94629.72;5091555;28;20200;-43
2023/10/19 07:03:28;;;;;;;18.07;13.60;;;;;;;11.69;92.43;94617.19;5091146;28;20190;-43
2023/10/19 07:05:56;;;;;;;16.87;12.97;;;;;;;11.86;90.91;94622.50;5091058;28;20194;-45
2023/10/19 07:08:23;;;;;;;20.57;12.83;;;;;;;11.92;89.90;94627.84;5092214;28;20198;-44
2023/10/19 07:10:51;;;;;;;14.13;11.23;;;;;;;12.10;88.47;94644.97;5090681;28;20186;-43
2023/10/19 07:13:20;;;;;;;16.43;10.50;;;;;;;12.18;86.69;94650.97;5090140;28;20195;-45
2023/10/19 07:15:47;;;;;;;11.40;10.00;;;;;;;12.20;86.32;94640.56;5091370;28;20537;-43
2023/10/19 07:18:14;;;;;;;14.10;10.23;;;;;;;12.28;85.92;94643.19;5092291;28;20225;-45
2023/10/19 07:20:42;;;;;;;14.83;10.17;;;;;;;12.33;85.35;94645.31;5092732;28;20267;-46
2023/10/19 07:23:18;;;;;;;12.23;9.43;;;;;;;12.39;85.26;94645.53;5089958;28;20235;-45
2023/10/19 07:25:47;;;;;;;13.07;10.27;;;;;;;12.36;84.93;94620.16;5089830;28;20668;-44
2023/10/19 07:28:16;;;;;;;13.53;9.53;;;;;;;12.62;82.83;94642.47;5089738;28;20204;-44
2023/10/19 07:30:44;;;;;;;15.07;9.83;;;;;;;12.56;82.63;94628.44;5090212;28;20593;-43
2023/10/19 07:33:16;;;;;;;13.67;9.83;;;;;;;12.64;82.37;94649.03;5091644;28;20257;-43
2023/10/19 07:35:46;;;;;;;13.27;10.50;;;;;;;12.61;82.57;94657.06;5090210;28;20671;-43
2023/10/19 07:38:14;;;;;;;14.23;10.47;;;;;;;12.52;83.30;94648.50;5089531;28;20224;-45
2023/10/19 07:40:41;;;;;;;13.20;9.67;;;;;;;12.53;83.40;94654.44;5090110;28;20174;-44
2023/10/19 07:43:08;;;;;;;10.30;8.70;;;;;;;12.52;83.66;94650.22;5089561;28;20628;-45
2023/10/19 07:45:37;;;;;;;14.37;10.60;;;;;;;12.57;83.46;94642.91;5090286;28;20251;-42
2023/10/19 07:48:07;;;;;;;16.77;10.63;;;;;;;12.62;82.98;94653.53;5089741;28;20282;-52
2023/10/19 07:50:34;;;;;;;16.73;11.33;;;;;;;12.73;82.85;94658.38;5090052;28;20229;-44
2023/10/19 07:53:02;;;;;;;17.90;13.43;;;;;;;12.99;82.02;94658.34;5089779;28;20189;-42
2023/10/19 07:55:31;;;;;;;23.57;14.50;;;;;;;13.23;81.47;94664.59;5089606;28;20204;-44
2023/10/19 07:57:59;;;;;;;20.43;14.13;;;;;;;13.51;80.26;94657.47;5092035;28;20561;-44
2023/10/19 08:00:29;;;;;;;20.10;14.00;;;;;;;13.67;79.41;94649.81;5088417;28;20190;-43
2023/10/19 08:02:58;;;;;;;15.30;12.67;;;;;;;13.81;78.45;94658.66;5089184;28;20182;-43
2023/10/19 08:05:25;;;;;;;19.73;12.93;;;;;;;13.85;77.45;94654.00;5089028;28;20229;-43
2023/10/19 08:07:52;;;;;;;17.47;12.87;;;;;;;13.69;77.90;94658.19;5089706;28;20197;-43
2023/10/19 08:10:20;;;;;;;19.10;13.50;;;;;;;13.41;78.57;94624.22;5089453;28;20557;-44
2023/10/19 08:12:49;;;;;;;21.87;13.70;;;;;;;13.68;78.89;94650.59;5089341;28;20194;-45
2023/10/19 08:15:17;;;;;;;17.73;12.63;;;;;;;13.64;78.86;94626.19;5089451;28;20182;-44
2023/10/19 08:17:46;;;;;;;20.77;14.00;;;;;;;13.92;77.93;94642.94;5088935;28;20300;-45
2023/10/19 08:20:22;;;;;;;18.73;13.50;;;;;;;14.08;77.37;94644.72;5091388;28;20190;-47
2023/10/19 08:22:49;;;;;;;15.83;12.80;;;;;;;14.14;77.50;94640.72;5090110;28;20196;-43
2023/10/19 08:25:17;;;;;;;16.87;13.23;;;;;;;14.20;77.17;94643.41;5088910;28;20268;-44
2023/10/19 08:27:47;;;;;;;22.63;14.67;;;;;;;14.29;76.96;94644.22;5088706;28;20200;-45
2023/10/19 08:30:14;;;;;;;17.77;14.07;;;;;;;14.36;76.84;94652.13;5085707;28;20210;-43
2023/10/19 08:32:41;;;;;;;18.37;14.30;;;;;;;14.46;75.87;94652.75;5089384;28;20651;-43
2023/10/19 08:35:11;;;;;;;21.97;15.37;;;;;;;14.52;75.02;94647.00;5089627;28;20186;-43
2023/10/19 08:37:39;;;;;;;17.40;14.60;;;;;;;14.41;75.54;94634.41;5086321;28;20233;-44
2023/10/19 08:40:14;;;;;;;18.10;14.90;;;;;;;14.45;75.37;94646.00;5088389;28;20205;-44
2023/10/19 08:42:41;;;;;;;20.53;15.50;;;;;;;14.45;75.67;94638.28;5092283;28;20197;-44
2023/10/19 08:45:09;;;;;;;23.47;15.30;;;;;;;14.46;75.94;94632.16;5088481;28;20181;-44
2023/10/19 08:47:37;;;;;;;21.93;16.50;;;;;;;14.50;74.94;94647.13;5089712;28;20185;-44
2023/10/19 08:50:06;;;;;;;17.70;14.77;;;;;;;14.39;75.71;94651.81;5094473;28;20261;-44
2023/10/19 08:52:34;;;;;;;24.40;14.87;;;;;;;14.33;75.98;94645.50;5102584;28;20201;-43
2023/10/19 08:55:02;;;;;;;19.07;14.20;;;;;;;14.30;76.22;94638.13;5093868;28;20566;-44
2023/10/19 08:57:29;;;;;;;17.53;14.17;;;;;;;14.44;75.80;94645.19;5092405;28;20227;-44
2023/10/19 08:59:58;;;;;;;20.93;13.43;;;;;;;14.63;75.42;94651.78;5093533;28;20267;-44
2023/10/19 09:02:27;;;;;;;27.80;14.93;;;;;;;14.80;75.01;94648.22;5088372;28;20186;-46
2023/10/19 09:04:58;;;;;;;21.63;16.50;;;;;;;14.94;74.39;94638.19;5088255;28;20212;-44
2023/10/19 09:07:30;;;;;;;17.20;14.47;;;;;;;14.90;73.45;94616.34;5089255;28;20212;-46
2023/10/19 09:09:57;;;;;;;16.30;13.40;;;;;;;15.08;73.37;94629.81;5088685;28;20197;-45
2023/10/19 09:12:26;;;;;;;18.80;14.10;;;;;;;15.18;72.81;94616.72;5087047;28;20304;-43
2023/10/19 09:14:54;;;;;;;15.50;12.50;;;;;;;15.33;72.06;94617.63;5088813;28;20656;-45
2023/10/19 09:17:28;;;;;;;14.73;12.23;;;;;;;15.39;70.82;94614.38;5089500;28;20651;-44
2023/10/19 09:19:59;;;;;;;12.87;11.27;;;;;;;15.30;71.08;94587.84;5088574;28;20212;-43
2023/10/19 09:22:27;;;;;;;11.67;10.40;;;;;;;15.50;70.97;94602.84;5089024;28;20209;-44
2023/10/19 09:24:55;;;;;;;15.13;11.93;;;;;;;15.50;70.08;94601.09;5089230;28;20236;-44
2023/10/19 09:27:23;;;;;;;13.00;11.70;;;;;;;15.29;70.75;94564.81;5088515;28;20621;-45
2023/10/19 09:29:52;;;;;;;13.50;12.03;;;;;;;15.55;70.62;94596.25;5092938;28;20704;-44
2023/10/19 09:32:19;;;;;;;14.23;11.53;;;;;;;15.51;70.82;94565.81;5091127;28;20243;-44
2023/10/19 09:34:47;;;;;;;20.03;10.67;;;;;;;15.69;70.75;94581.03;5093372;28;20197;-43
2023/10/19 09:37:18;;;;;;;11.73;10.37;;;;;;;15.43;70.64;94547.84;5093160;28;20603;-43
2023/10/19 09:39:45;;;;;;;13.10;10.60;;;;;;;15.71;70.61;94584.22;5092628;28;20221;-43
2023/10/19 09:42:18;;;;;;;11.87;9.83;;;;;;;15.72;70.33;94578.94;5092983;28;20664;-42
2023/10/19 09:44:46;;;;;;;12.13;9.70;;;;;;;15.73;70.25;94582.31;5093356;28;20274;-42
2023/10/19 09:47:21;;;;;;;10.17;9.13;;;;;;;15.70;69.73;94569.75;5092023;28;20621;-45
2023/10/19 09:49:50;;;;;;;11.07;7.23;;;;;;;15.70;68.96;94575.69;5090211;28;20192;-43
2023/10/19 09:52:18;;;;;;;8.67;7.70;;;;;;;15.55;68.81;94565.31;5092798;28;20549;-44
2023/10/19 09:54:58;;;;;;;9.13;8.23;;;;;;;15.78;69.11;94575.66;5090330;28;20686;-44
2023/10/19 09:57:33;;;;;;;8.87;7.73;;;;;;;15.99;68.23;94587.91;5092346;28;20200;-44
2023/10/19 10:00:11;;;;;;;8.00;7.20;;;;;;;16.12;67.48;94566.69;5093135;28;21401;-45
2023/10/19 10:02:42;;;;;;;14.73;7.27;;;;;;;16.17;67.48;94566.16;5091898;28;20177;-43
2023/10/19 10:05:42;;;;;;;15.27;7.60;;;;;;;16.15;67.52;94556.03;5092812;28;20211;-42
2023/10/19 10:08:32;;;;;;;8.97;7.47;;;;;;;16.26;67.44;94560.75;5090644;28;20265;-42
2023/10/19 10:10:59;;;;;;;8.27;7.47;;;;;;;16.23;67.13;94545.59;5091165;28;20197;-43
2023/10/19 10:13:39;;;;;;;8.47;7.40;;;;;;;16.47;67.03;94554.09;5093155;28;20205;-49
2023/10/19 10:16:08;;;;;;;9.07;8.13;;;;;;;16.59;66.45;94544.94;5093219;28;20193;-44
2023/10/19 10:18:39;;;;;;;9.13;7.07;;;;;;;16.69;65.88;94542.06;5095615;28;20211;-48
2023/10/19 10:21:12;;;;;;;8.17;7.37;;;;;;;16.90;66.01;94546.56;5094053;28;20186;-51
2023/10/19 10:23:43;;;;;;;11.43;8.47;;;;;;;16.96;65.48;94549.19;5097721;28;20189;-47
2023/10/19 10:26:12;;;;;;;11.17;8.17;;;;;;;17.04;65.69;94535.38;5093364;28;20246;-43
2023/10/19 10:28:40;;;;;;;9.33;7.60;;;;;;;17.10;65.22;94520.94;5091890;28;20189;-43
2023/10/19 10:31:15;;;;;;;8.73;7.57;;;;;;;17.18;65.04;94526.78;5092322;28;20200;-42
2023/10/19 10:33:46;;;;;;;9.30;7.93;;;;;;;17.26;64.40;94518.94;5089098;28;20189;-42
2023/10/19 10:36:16;;;;;;;9.57;8.50;;;;;;;17.27;64.46;94509.38;5092115;28;20557;-44
2023/10/19 10:38:44;;;;;;;9.37;8.10;;;;;;;17.17;64.78;94506.31;5092984;28;20652;-45
2023/10/19 10:41:12;;;;;;;10.03;8.10;;;;;;;17.08;65.13;94500.44;5092030;28;20197;-43
2023/10/19 10:43:52;;;;;;;9.10;8.20;;;;;;;17.15;65.40;94492.78;5092664;28;20246;-43
2023/10/19 10:46:21;;;;;;;9.23;8.23;;;;;;;17.12;65.58;94483.59;5091796;28;20190;-46
2023/10/19 10:48:51;;;;;;;9.27;8.37;;;;;;;17.11;65.91;94484.59;5093458;28;20286;-43
2023/10/19 10:51:20;;;;;;;10.00;8.67;;;;;;;17.14;65.85;94473.91;5093393;28;20253;-43
2023/10/19 10:53:56;;;;;;;9.07;8.17;;;;;;;17.17;66.27;94472.72;5092941;28;20273;-43
2023/10/19 10:56:25;;;;;;;11.00;7.70;;;;;;;17.25;65.77;94470.81;5092494;28;20215;-43
2023/10/19 10:58:54;;;;;;;12.07;8.07;;;;;;;17.30;65.58;94460.72;5092842;28;20222;-43
2023/10/19 11:01:32;;;;;;;10.03;7.70;;;;;;;17.41;65.56;94459.44;5092861;28;20197;-44
2023/10/19 11:04:13;;;;;;;9.97;7.67;;;;;;;17.47;65.43;94457.88;5092190;28;20243;-45
2023/10/19 11:06:50;;;;;;;11.27;7.53;;;;;;;17.52;65.44;94447.78;5094247;28;20268;-43
2023/10/19 11:09:19;;;;;;;11.03;7.63;;;;;;;17.44;65.24;94428.06;5093570;28;20235;-43
2023/10/19 11:11:49;;;;;;;9.27;8.17;;;;;;;17.61;65.38;94446.66;5094336;28;20246;-44
2023/10/19 11:14:17;;;;;;;9.03;8.13;;;;;;;17.69;65.33;94441.34;5092969;28;20659;-44
2023/10/19 11:16:47;;;;;;;13.73;8.27;;;;;;;17.70;65.02;94419.72;5091780;28;20618;-44
2023/10/19 11:19:17;;;;;;;9.50;7.83;;;;;;;17.85;64.91;94444.69;5091427;28;20217;-44
2023/10/19 11:21:54;;;;;;;10.17;8.57;;;;;;;17.82;64.55;94437.31;5091391;28;20217;-43
2023/10/19 11:24:33;;;;;;;9.07;8.07;;;;;;;17.87;64.38;94432.38;5091133;28;20564;-42
2023/10/19 11:27:01;;;;;;;9.10;7.33;;;;;;;17.76;64.30;94413.81;5091568;28;20185;-43
2023/10/19 11:29:29;;;;;;;7.47;6.70;;;;;;;17.93;64.34;94416.09;5091140;28;20203;-43
2023/10/19 11:32:02;;;;;;;7.73;6.90;;;;;;;18.01;63.94;94418.53;5090630;28;20189;-43
2023/10/19 11:34:34;;;;;;;8.63;7.13;;;;;;;17.99;63.73;94415.34;5090832;28;20186;-44
2023/10/19 11:37:03;;;;;;;8.37;7.20;;;;;;;18.04;63.87;94416.34;5091643;28;20193;-44